Speedwell, Virginia
Current Conditions -  °F | °C
As of 1:35 PM on Thursday 23 Oct 2014 (Local Time) from KMKJ Reporting Station
Scattered Clouds Scattered Clouds  
Wind Chill: 52°   Ceiling: Unl
Heat Index: 52°   Visibility: 10mi
Dew Point: 39°   Wind: 9mph
Humidity: 62%   Direction: 310°NW
Pressure: 30.15"   Gusts: 16mph
Location:  36.81°N, 81.17°W
Report Text: KMKJ 231735Z AUTO 31008G14KT 10SM SCT026 11/04 A3015 RMK AO2 T01110040
Loading
Personal Weather Stations






























Interactive Weather Map
Tropical Storm Tracking
New forecast layout! Learn more

10-Day Weather Forecast

Advertisements
Track Severe Weather on mobile